ACA CYXU-CYTZ
Flight info
| Callsign | ACA |
|---|---|
| Flight time | N/A |
| Altitude | 3000 |
| Route | DIRECT. |
| Aircraft | C152 |
Departure
| Time | 2026-04-18 03:30 |
|---|---|
| Airport | London International Airport (CYXU) |
Arrival
| Time | N/A |
|---|---|
| Airport | Billy Bishop Toronto City Airport (CYTZ) |
| Time | Latitude | Longitude | Altitude | Speed | Heading |
|---|---|---|---|---|---|
| 2026-04-18 03:08 | 43.03574 | -81.16432 | 906 ft | 0 kts | 333° |
| 2026-04-18 03:11 | 43.03581 | -81.16433 | 906 ft | 3 kts | 5° |
| 2026-04-18 03:11 | 43.03592 | -81.16422 | 906 ft | 0 kts | 39° |
| 2026-04-18 03:20 | 43.03605 | -81.16402 | 906 ft | 11 kts | 55° |
| 2026-04-18 03:20 | 43.03623 | -81.16302 | 906 ft | 0 kts | 79° |
| 2026-04-18 03:24 | 43.03634 | -81.16227 | 904 ft | 19 kts | 81° |
| 2026-04-18 03:24 | 43.03666 | -81.15995 | 901 ft | 30 kts | 79° |
| 2026-04-18 03:24 | 43.03698 | -81.15773 | 898 ft | 7 kts | 78° |
| 2026-04-18 03:24 | 43.03699 | -81.15769 | 898 ft | 0 kts | 79° |
| 2026-04-18 03:25 | 43.03730 | -81.15725 | 898 ft | 13 kts | 9° |
| 2026-04-18 03:25 | 43.03767 | -81.15764 | 898 ft | 9 kts | 300° |
| 2026-04-18 03:25 | 43.03841 | -81.15858 | 900 ft | 19 kts | 319° |
| 2026-04-18 03:25 | 43.03956 | -81.15991 | 901 ft | 19 kts | 320° |
| 2026-04-18 03:26 | 43.04044 | -81.16017 | 906 ft | 11 kts | 12° |
| 2026-04-18 03:26 | 43.04068 | -81.16010 | 907 ft | 0 kts | 9° |
| 2026-04-18 03:28 | 43.04105 | -81.15994 | 907 ft | 13 kts | 33° |
| 2026-04-18 03:28 | 43.04138 | -81.15900 | 907 ft | 11 kts | 110° |
| 2026-04-18 03:29 | 43.04133 | -81.15890 | 906 ft | 0 kts | 140° |
| 2026-04-18 03:29 | 43.03973 | -81.15698 | 902 ft | 57 kts | 139° |
| 2026-04-18 03:30 | 43.03631 | -81.15311 | 1039 ft | 66 kts | 139° |
| 2026-04-18 03:30 | 43.03260 | -81.14922 | 1231 ft | 67 kts | 139° |
| 2026-04-18 03:30 | 43.02965 | -81.14479 | 1468 ft | 59 kts | 127° |
| 2026-04-18 03:30 | 43.02810 | -81.13967 | 1652 ft | 62 kts | 110° |
| 2026-04-18 03:31 | 43.02774 | -81.13341 | 1819 ft | 69 kts | 97° |
| 2026-04-18 03:31 | 43.02903 | -81.12656 | 1963 ft | 78 kts | 84° |
| 2026-04-18 03:31 | 43.03128 | -81.11952 | 2085 ft | 84 kts | 82° |
| 2026-04-18 03:31 | 43.03386 | -81.11211 | 2217 ft | 88 kts | 78° |
| 2026-04-18 03:32 | 43.03658 | -81.10444 | 2335 ft | 92 kts | 78° |
| 2026-04-18 03:32 | 43.03934 | -81.09634 | 2431 ft | 96 kts | 78° |
| 2026-04-18 03:32 | 43.04236 | -81.08795 | 2533 ft | 101 kts | 77° |
| 2026-04-18 03:32 | 43.04536 | -81.07931 | 2660 ft | 101 kts | 77° |
| 2026-04-18 03:33 | 43.04849 | -81.07071 | 2746 ft | 103 kts | 75° |
| 2026-04-18 03:33 | 43.05178 | -81.06193 | 2768 ft | 103 kts | 76° |
| 2026-04-18 03:33 | 43.05504 | -81.05344 | 2812 ft | 99 kts | 76° |
| 2026-04-18 03:33 | 43.05829 | -81.04526 | 2845 ft | 100 kts | 71° |
| 2026-04-18 03:34 | 43.06185 | -81.03714 | 2864 ft | 100 kts | 72° |
| 2026-04-18 03:34 | 43.06559 | -81.02887 | 2825 ft | 105 kts | 69° |
| 2026-04-18 03:34 | 43.06944 | -81.02089 | 2920 ft | 94 kts | 68° |
| 2026-04-18 03:34 | 43.07320 | -81.01399 | 3040 ft | 90 kts | 67° |
| 2026-04-18 03:35 | 43.07683 | -81.00643 | 3079 ft | 97 kts | 68° |
| 2026-04-18 03:35 | 43.08070 | -80.99908 | 3201 ft | 94 kts | 64° |
| 2026-04-18 03:35 | 43.08566 | -80.99265 | 3189 ft | 107 kts | 32° |
| 2026-04-18 03:35 | 43.09265 | -80.98923 | 3253 ft | 103 kts | 25° |
| 2026-04-18 03:36 | 43.09906 | -80.98457 | 3302 ft | 107 kts | 27° |
| 2026-04-18 03:36 | 43.10627 | -80.98211 | 3315 ft | 114 kts | 24° |
| 2026-04-18 03:36 | 43.11173 | -80.97720 | 3431 ft | 105 kts | 35° |